Terminal Aerodrome Forecast
Issued by NWS Hastings, NE

Home | Current Version | Previous Version | Text Only | Print | Product List | Glossary On
Versions: 1 2 3 4 5 6 7 8 9 10 11 12 13 14 15 16 17
000
FTUS43 KGID 231725
TAFGRI
TAF
KGRI 231725Z 2318/2418 19012KT P6SM FEW250
     FM240600 16008KT P6SM FEW250 WS005/20040KT
     FM241400 19010KT P6SM FEW150 SCT250=

USA.gov is the U.S. government's official web portal to all federal, state and local government web resources and services.